sensor_id;sensor_type;location;lat;lon;timestamp;temperature;humidity
18191;DHT22;47004;51.366;12.348;2023-04-24T00:01:42;13.90;99.90
18191;DHT22;47004;51.366;12.348;2023-04-24T00:03:44;13.90;99.90
18191;DHT22;47004;51.366;12.348;2023-04-24T00:05:46;13.80;99.90
18191;DHT22;47004;51.366;12.348;2023-04-24T00:07:48;13.80;99.90
18191;DHT22;47004;51.366;12.348;2023-04-24T00:09:53;13.80;99.90
18191;DHT22;47004;51.366;12.348;2023-04-24T00:11:54;13.80;99.90
18191;DHT22;47004;51.366;12.348;2023-04-24T00:13:57;13.80;99.90
18191;DHT22;47004;51.366;12.348;2023-04-24T00:15:59;13.70;99.90
18191;DHT22;47004;51.366;12.348;2023-04-24T00:18:03;13.70;99.90
18191;DHT22;47004;51.366;12.348;2023-04-24T00:20:06;13.70;99.90
18191;DHT22;47004;51.366;12.348;2023-04-24T00:22:08;13.70;99.90
18191;DHT22;47004;51.366;12.348;2023-04-24T00:24:11;13.60;99.90
18191;DHT22;47004;51.366;12.348;2023-04-24T00:26:13;13.60;99.90
18191;DHT22;47004;51.366;12.348;2023-04-24T00:28:15;13.60;99.90
18191;DHT22;47004;51.366;12.348;2023-04-24T00:30:17;13.50;99.90
18191;DHT22;47004;51.366;12.348;2023-04-24T00:32:19;13.50;99.90
18191;DHT22;47004;51.366;12.348;2023-04-24T00:34:22;13.40;99.90
18191;DHT22;47004;51.366;12.348;2023-04-24T00:36:24;13.40;99.90
18191;DHT22;47004;51.366;12.348;2023-04-24T00:38:27;13.40;99.90
18191;DHT22;47004;51.366;12.348;2023-04-24T00:40:29;13.30;99.90
18191;DHT22;47004;51.366;12.348;2023-04-24T00:42:31;13.30;99.90
18191;DHT22;47004;51.366;12.348;2023-04-24T00:44:33;13.30;99.90
18191;DHT22;47004;51.366;12.348;2023-04-24T00:46:36;13.20;99.90
18191;DHT22;47004;51.366;12.348;2023-04-24T00:48:38;13.20;99.90
18191;DHT22;47004;51.366;12.348;2023-04-24T00:50:42;13.20;99.90
18191;DHT22;47004;51.366;12.348;2023-04-24T00:52:44;13.10;99.90
18191;DHT22;47004;51.366;12.348;2023-04-24T00:54:46;13.10;99.90
18191;DHT22;47004;51.366;12.348;2023-04-24T00:56:48;13.10;99.90
18191;DHT22;47004;51.366;12.348;2023-04-24T00:58:51;13.10;99.90
18191;DHT22;47004;51.366;12.348;2023-04-24T01:00:54;13.00;99.90
18191;DHT22;47004;51.366;12.348;2023-04-24T01:02:59;13.00;99.90
18191;DHT22;47004;51.366;12.348;2023-04-24T01:05:03;13.00;99.90
18191;DHT22;47004;51.366;12.348;2023-04-24T01:07:07;12.90;99.90
18191;DHT22;47004;51.366;12.348;2023-04-24T01:09:12;12.90;99.90
18191;DHT22;47004;51.366;12.348;2023-04-24T01:11:15;12.90;99.90
18191;DHT22;47004;51.366;12.348;2023-04-24T01:13:16;12.90;99.90
18191;DHT22;47004;51.366;12.348;2023-04-24T01:15:19;12.80;99.90
18191;DHT22;47004;51.366;12.348;2023-04-24T01:17:21;12.80;99.90
18191;DHT22;47004;51.366;12.348;2023-04-24T01:19:23;12.80;99.90
18191;DHT22;47004;51.366;12.348;2023-04-24T01:21:26;12.80;99.90
18191;DHT22;47004;51.366;12.348;2023-04-24T01:23:31;12.80;99.90
18191;DHT22;47004;51.366;12.348;2023-04-24T01:25:34;12.70;99.90
18191;DHT22;47004;51.366;12.348;2023-04-24T01:27:36;12.70;99.90
18191;DHT22;47004;51.366;12.348;2023-04-24T01:29:39;12.70;99.90
18191;DHT22;47004;51.366;12.348;2023-04-24T01:31:41;12.70;99.90
18191;DHT22;47004;51.366;12.348;2023-04-24T01:33:43;12.60;99.90
18191;DHT22;47004;51.366;12.348;2023-04-24T01:35:45;12.70;99.90
18191;DHT22;47004;51.366;12.348;2023-04-24T01:37:47;12.60;99.90
18191;DHT22;47004;51.366;12.348;2023-04-24T01:39:50;12.60;99.90
18191;DHT22;47004;51.366;12.348;2023-04-24T01:41:52;12.60;99.90
18191;DHT22;47004;51.366;12.348;2023-04-24T01:43:54;12.60;99.90
18191;DHT22;47004;51.366;12.348;2023-04-24T01:45:56;12.60;99.90
18191;DHT22;47004;51.366;12.348;2023-04-24T01:47:58;12.50;99.90
18191;DHT22;47004;51.366;12.348;2023-04-24T01:50:02;12.50;99.90
18191;DHT22;47004;51.366;12.348;2023-04-24T01:52:04;12.50;99.90
18191;DHT22;47004;51.366;12.348;2023-04-24T01:54:06;12.50;99.90
18191;DHT22;47004;51.366;12.348;2023-04-24T01:56:09;12.50;99.90
18191;DHT22;47004;51.366;12.348;2023-04-24T01:58:11;12.50;99.90
18191;DHT22;47004;51.366;12.348;2023-04-24T02:00:14;12.40;99.90
18191;DHT22;47004;51.366;12.348;2023-04-24T02:02:15;12.50;99.90
18191;DHT22;47004;51.366;12.348;2023-04-24T02:04:17;12.40;99.90
18191;DHT22;47004;51.366;12.348;2023-04-24T02:06:19;12.40;99.90
18191;DHT22;47004;51.366;12.348;2023-04-24T02:08:21;12.30;99.90
18191;DHT22;47004;51.366;12.348;2023-04-24T02:10:23;12.40;99.90
18191;DHT22;47004;51.366;12.348;2023-04-24T02:12:27;12.40;99.90
18191;DHT22;47004;51.366;12.348;2023-04-24T02:14:29;12.40;99.90
18191;DHT22;47004;51.366;12.348;2023-04-24T02:16:30;12.30;99.90
18191;DHT22;47004;51.366;12.348;2023-04-24T02:18:34;12.30;99.90
18191;DHT22;47004;51.366;12.348;2023-04-24T02:20:36;12.30;99.90
18191;DHT22;47004;51.366;12.348;2023-04-24T02:22:38;12.30;99.90
18191;DHT22;47004;51.366;12.348;2023-04-24T02:24:40;12.30;99.90
18191;DHT22;47004;51.366;12.348;2023-04-24T02:26:42;12.20;99.90
18191;DHT22;47004;51.366;12.348;2023-04-24T02:28:45;12.20;99.90
18191;DHT22;47004;51.366;12.348;2023-04-24T02:30:47;12.20;99.90
18191;DHT22;47004;51.366;12.348;2023-04-24T02:32:49;12.20;99.90
18191;DHT22;47004;51.366;12.348;2023-04-24T02:34:50;12.10;99.90
18191;DHT22;47004;51.366;12.348;2023-04-24T02:36:54;12.10;99.90
18191;DHT22;47004;51.366;12.348;2023-04-24T02:38:56;12.10;99.90
18191;DHT22;47004;51.366;12.348;2023-04-24T02:40:58;12.10;99.90
18191;DHT22;47004;51.366;12.348;2023-04-24T02:43:01;12.00;99.90
18191;DHT22;47004;51.366;12.348;2023-04-24T02:45:05;12.10;99.90
18191;DHT22;47004;51.366;12.348;2023-04-24T02:47:07;12.00;99.90
18191;DHT22;47004;51.366;12.348;2023-04-24T02:49:09;12.00;99.90
18191;DHT22;47004;51.366;12.348;2023-04-24T02:51:12;12.00;99.90
18191;DHT22;47004;51.366;12.348;2023-04-24T02:53:14;12.00;99.90
18191;DHT22;47004;51.366;12.348;2023-04-24T02:55:16;12.00;99.90
18191;DHT22;47004;51.366;12.348;2023-04-24T02:57:18;11.90;99.90
18191;DHT22;47004;51.366;12.348;2023-04-24T02:59:19;11.90;99.90
18191;DHT22;47004;51.366;12.348;2023-04-24T03:01:23;11.90;99.90
18191;DHT22;47004;51.366;12.348;2023-04-24T03:03:25;11.90;99.90
18191;DHT22;47004;51.366;12.348;2023-04-24T03:05:27;11.90;99.90
18191;DHT22;47004;51.366;12.348;2023-04-24T03:07:29;11.90;99.90
18191;DHT22;47004;51.366;12.348;2023-04-24T03:09:31;11.80;99.90
18191;DHT22;47004;51.366;12.348;2023-04-24T03:11:33;11.80;99.90
18191;DHT22;47004;51.366;12.348;2023-04-24T03:13:35;11.80;99.90
18191;DHT22;47004;51.366;12.348;2023-04-24T03:15:37;11.80;99.90
18191;DHT22;47004;51.366;12.348;2023-04-24T03:17:40;11.80;99.90
18191;DHT22;47004;51.366;12.348;2023-04-24T03:19:42;11.80;99.90
18191;DHT22;47004;51.366;12.348;2023-04-24T03:21:44;11.80;99.90
18191;DHT22;47004;51.366;12.348;2023-04-24T03:23:46;11.80;99.90
18191;DHT22;47004;51.366;12.348;2023-04-24T03:25:47;11.70;99.90
18191;DHT22;47004;51.366;12.348;2023-04-24T03:27:49;11.70;99.90
18191;DHT22;47004;51.366;12.348;2023-04-24T03:29:51;11.70;99.90
18191;DHT22;47004;51.366;12.348;2023-04-24T03:31:55;11.70;99.90
18191;DHT22;47004;51.366;12.348;2023-04-24T03:33:59;11.70;99.90
18191;DHT22;47004;51.366;12.348;2023-04-24T03:36:00;11.60;99.90
18191;DHT22;47004;51.366;12.348;2023-04-24T03:38:02;11.70;99.90
18191;DHT22;47004;51.366;12.348;2023-04-24T03:40:06;11.70;99.90
18191;DHT22;47004;51.366;12.348;2023-04-24T03:42:08;11.60;99.90
18191;DHT22;47004;51.366;12.348;2023-04-24T03:44:10;11.60;99.90
18191;DHT22;47004;51.366;12.348;2023-04-24T03:46:15;11.60;99.90
18191;DHT22;47004;51.366;12.348;2023-04-24T03:48:16;11.60;99.90
18191;DHT22;47004;51.366;12.348;2023-04-24T03:50:21;11.60;99.90
18191;DHT22;47004;51.366;12.348;2023-04-24T03:52:23;11.60;99.90
18191;DHT22;47004;51.366;12.348;2023-04-24T03:54:25;11.60;99.90
18191;DHT22;47004;51.366;12.348;2023-04-24T03:56:27;11.60;99.90
18191;DHT22;47004;51.366;12.348;2023-04-24T03:58:29;11.50;99.90
18191;DHT22;47004;51.366;12.348;2023-04-24T04:00:31;11.50;99.90
18191;DHT22;47004;51.366;12.348;2023-04-24T04:02:33;11.50;99.90
18191;DHT22;47004;51.366;12.348;2023-04-24T04:04:35;11.50;99.90
18191;DHT22;47004;51.366;12.348;2023-04-24T04:06:38;11.50;99.90
18191;DHT22;47004;51.366;12.348;2023-04-24T04:08:40;11.50;99.90
18191;DHT22;47004;51.366;12.348;2023-04-24T04:10:42;11.40;99.90
18191;DHT22;47004;51.366;12.348;2023-04-24T04:12:44;11.50;99.90
18191;DHT22;47004;51.366;12.348;2023-04-24T04:14:46;11.40;99.90
18191;DHT22;47004;51.366;12.348;2023-04-24T04:16:48;11.40;99.90
18191;DHT22;47004;51.366;12.348;2023-04-24T04:18:50;11.40;99.90
18191;DHT22;47004;51.366;12.348;2023-04-24T04:20:52;11.40;99.90
18191;DHT22;47004;51.366;12.348;2023-04-24T04:22:55;11.40;99.90
18191;DHT22;47004;51.366;12.348;2023-04-24T04:24:57;11.30;99.90
18191;DHT22;47004;51.366;12.348;2023-04-24T04:26:59;11.30;99.90
18191;DHT22;47004;51.366;12.348;2023-04-24T04:29:01;11.30;99.90
18191;DHT22;47004;51.366;12.348;2023-04-24T04:31:04;11.30;99.90
18191;DHT22;47004;51.366;12.348;2023-04-24T04:33:05;11.30;99.90
18191;DHT22;47004;51.366;12.348;2023-04-24T04:35:08;11.40;99.90
18191;DHT22;47004;51.366;12.348;2023-04-24T04:37:10;11.30;99.90
18191;DHT22;47004;51.366;12.348;2023-04-24T04:39:14;11.30;99.90
18191;DHT22;47004;51.366;12.348;2023-04-24T04:41:17;11.30;99.90
18191;DHT22;47004;51.366;12.348;2023-04-24T04:43:19;11.30;99.90
18191;DHT22;47004;51.366;12.348;2023-04-24T04:45:21;11.30;99.90
18191;DHT22;47004;51.366;12.348;2023-04-24T04:47:24;11.30;99.90
18191;DHT22;47004;51.366;12.348;2023-04-24T04:49:27;11.30;99.90
18191;DHT22;47004;51.366;12.348;2023-04-24T04:51:29;11.40;99.90
18191;DHT22;47004;51.366;12.348;2023-04-24T04:53:31;11.30;99.90
18191;DHT22;47004;51.366;12.348;2023-04-24T04:55:34;11.30;99.90
18191;DHT22;47004;51.366;12.348;2023-04-24T04:57:37;11.40;99.90
18191;DHT22;47004;51.366;12.348;2023-04-24T04:59:39;11.40;99.90
18191;DHT22;47004;51.366;12.348;2023-04-24T05:01:41;11.40;99.90
18191;DHT22;47004;51.366;12.348;2023-04-24T05:03:43;11.40;99.90
18191;DHT22;47004;51.366;12.348;2023-04-24T05:05:45;11.40;99.90
18191;DHT22;47004;51.366;12.348;2023-04-24T05:07:47;11.40;99.90
18191;DHT22;47004;51.366;12.348;2023-04-24T05:09:49;11.40;99.90
18191;DHT22;47004;51.366;12.348;2023-04-24T05:11:53;11.50;99.90
18191;DHT22;47004;51.366;12.348;2023-04-24T05:13:55;11.50;99.90
18191;DHT22;47004;51.366;12.348;2023-04-24T05:15:57;11.50;99.90
18191;DHT22;47004;51.366;12.348;2023-04-24T05:18:03;11.50;99.90
18191;DHT22;47004;51.366;12.348;2023-04-24T05:20:06;11.50;99.90
18191;DHT22;47004;51.366;12.348;2023-04-24T05:22:08;11.50;99.90
18191;DHT22;47004;51.366;12.348;2023-04-24T05:24:11;11.60;99.90
18191;DHT22;47004;51.366;12.348;2023-04-24T05:26:13;11.60;99.90
18191;DHT22;47004;51.366;12.348;2023-04-24T05:28:20;11.70;99.90
18191;DHT22;47004;51.366;12.348;2023-04-24T05:30:22;11.70;99.90
18191;DHT22;47004;51.366;12.348;2023-04-24T05:32:24;11.70;99.90
18191;DHT22;47004;51.366;12.348;2023-04-24T05:34:27;11.80;99.90
18191;DHT22;47004;51.366;12.348;2023-04-24T05:36:29;11.80;99.90
18191;DHT22;47004;51.366;12.348;2023-04-24T05:38:31;11.80;99.90
18191;DHT22;47004;51.366;12.348;2023-04-24T05:40:33;11.80;99.90
18191;DHT22;47004;51.366;12.348;2023-04-24T05:42:35;11.80;99.90
18191;DHT22;47004;51.366;12.348;2023-04-24T05:44:38;11.80;99.90
18191;DHT22;47004;51.366;12.348;2023-04-24T05:46:40;11.80;99.90
18191;DHT22;47004;51.366;12.348;2023-04-24T05:48:42;11.80;99.90
18191;DHT22;47004;51.366;12.348;2023-04-24T05:50:44;11.90;99.90
18191;DHT22;47004;51.366;12.348;2023-04-24T05:52:47;11.90;99.90
18191;DHT22;47004;51.366;12.348;2023-04-24T05:54:49;11.90;99.90
18191;DHT22;47004;51.366;12.348;2023-04-24T05:56:51;12.00;99.90
18191;DHT22;47004;51.366;12.348;2023-04-24T05:58:54;12.10;99.90
18191;DHT22;47004;51.366;12.348;2023-04-24T06:00:58;12.10;99.90
18191;DHT22;47004;51.366;12.348;2023-04-24T06:03:01;12.00;99.90
18191;DHT22;47004;51.366;12.348;2023-04-24T06:05:05;12.20;99.90
18191;DHT22;47004;51.366;12.348;2023-04-24T06:07:07;12.20;99.90
18191;DHT22;47004;51.366;12.348;2023-04-24T06:09:08;12.30;99.90
18191;DHT22;47004;51.366;12.348;2023-04-24T06:11:10;12.30;99.90
18191;DHT22;47004;51.366;12.348;2023-04-24T06:13:12;12.30;99.90
18191;DHT22;47004;51.366;12.348;2023-04-24T06:15:14;12.40;99.90
18191;DHT22;47004;51.366;12.348;2023-04-24T06:17:18;12.40;99.90
18191;DHT22;47004;51.366;12.348;2023-04-24T06:19:20;12.40;99.90
18191;DHT22;47004;51.366;12.348;2023-04-24T06:21:22;12.50;99.90
18191;DHT22;47004;51.366;12.348;2023-04-24T06:23:23;12.50;99.90
18191;DHT22;47004;51.366;12.348;2023-04-24T06:25:26;12.50;99.90
18191;DHT22;47004;51.366;12.348;2023-04-24T06:27:28;12.60;99.90
18191;DHT22;47004;51.366;12.348;2023-04-24T06:29:30;12.60;99.90
18191;DHT22;47004;51.366;12.348;2023-04-24T06:31:31;12.60;99.90
18191;DHT22;47004;51.366;12.348;2023-04-24T06:33:38;12.60;99.90
18191;DHT22;47004;51.366;12.348;2023-04-24T06:35:40;12.70;99.90
18191;DHT22;47004;51.366;12.348;2023-04-24T06:37:43;12.70;99.90
18191;DHT22;47004;51.366;12.348;2023-04-24T06:39:45;12.70;99.90
18191;DHT22;47004;51.366;12.348;2023-04-24T06:41:46;12.70;99.90
18191;DHT22;47004;51.366;12.348;2023-04-24T06:43:48;12.80;99.90
18191;DHT22;47004;51.366;12.348;2023-04-24T06:45:50;12.80;99.90
18191;DHT22;47004;51.366;12.348;2023-04-24T06:47:52;12.80;99.90
18191;DHT22;47004;51.366;12.348;2023-04-24T06:49:55;12.80;99.90
18191;DHT22;47004;51.366;12.348;2023-04-24T06:51:57;12.80;99.90
18191;DHT22;47004;51.366;12.348;2023-04-24T06:53:59;12.80;99.90
18191;DHT22;47004;51.366;12.348;2023-04-24T06:56:02;12.80;99.90
18191;DHT22;47004;51.366;12.348;2023-04-24T06:58:04;12.90;99.90
18191;DHT22;47004;51.366;12.348;2023-04-24T07:00:07;12.90;99.90
18191;DHT22;47004;51.366;12.348;2023-04-24T07:02:10;12.90;99.90
18191;DHT22;47004;51.366;12.348;2023-04-24T07:04:12;12.90;99.90
18191;DHT22;47004;51.366;12.348;2023-04-24T07:06:16;12.90;99.90
18191;DHT22;47004;51.366;12.348;2023-04-24T07:08:19;12.90;99.90
18191;DHT22;47004;51.366;12.348;2023-04-24T07:10:22;12.90;99.90
18191;DHT22;47004;51.366;12.348;2023-04-24T07:12:24;13.00;99.90
18191;DHT22;47004;51.366;12.348;2023-04-24T07:14:26;13.00;99.90
18191;DHT22;47004;51.366;12.348;2023-04-24T07:16:28;13.00;99.90
18191;DHT22;47004;51.366;12.348;2023-04-24T07:18:30;13.00;99.90
18191;DHT22;47004;51.366;12.348;2023-04-24T07:20:32;13.10;99.90
18191;DHT22;47004;51.366;12.348;2023-04-24T07:22:37;13.10;99.90
18191;DHT22;47004;51.366;12.348;2023-04-24T07:24:38;13.00;99.90
18191;DHT22;47004;51.366;12.348;2023-04-24T07:26:40;13.10;99.90
18191;DHT22;47004;51.366;12.348;2023-04-24T07:28:43;13.10;99.90
18191;DHT22;47004;51.366;12.348;2023-04-24T07:30:44;13.10;99.90
18191;DHT22;47004;51.366;12.348;2023-04-24T07:32:46;13.10;99.90
18191;DHT22;47004;51.366;12.348;2023-04-24T07:34:48;13.20;99.90
18191;DHT22;47004;51.366;12.348;2023-04-24T07:36:50;13.20;99.90
18191;DHT22;47004;51.366;12.348;2023-04-24T07:38:54;13.30;99.90
18191;DHT22;47004;51.366;12.348;2023-04-24T07:40:56;13.40;99.90
18191;DHT22;47004;51.366;12.348;2023-04-24T07:42:59;13.30;99.90
18191;DHT22;47004;51.366;12.348;2023-04-24T07:45:01;13.40;99.90
18191;DHT22;47004;51.366;12.348;2023-04-24T07:47:02;13.40;99.90
18191;DHT22;47004;51.366;12.348;2023-04-24T07:49:04;13.50;99.90
18191;DHT22;47004;51.366;12.348;2023-04-24T07:51:06;13.50;99.90
18191;DHT22;47004;51.366;12.348;2023-04-24T07:53:10;13.50;99.90
18191;DHT22;47004;51.366;12.348;2023-04-24T07:55:14;13.60;99.90
18191;DHT22;47004;51.366;12.348;2023-04-24T07:57:16;13.60;99.90
18191;DHT22;47004;51.366;12.348;2023-04-24T07:59:18;13.60;99.90
18191;DHT22;47004;51.366;12.348;2023-04-24T08:01:19;13.60;99.90
18191;DHT22;47004;51.366;12.348;2023-04-24T08:03:21;13.70;99.90
18191;DHT22;47004;51.366;12.348;2023-04-24T08:05:24;13.70;99.90
18191;DHT22;47004;51.366;12.348;2023-04-24T08:07:29;13.70;99.90
18191;DHT22;47004;51.366;12.348;2023-04-24T08:09:30;13.80;99.90
18191;DHT22;47004;51.366;12.348;2023-04-24T08:11:34;13.90;99.90
18191;DHT22;47004;51.366;12.348;2023-04-24T08:13:36;14.00;99.90
18191;DHT22;47004;51.366;12.348;2023-04-24T08:15:37;14.00;99.90
18191;DHT22;47004;51.366;12.348;2023-04-24T08:17:39;14.10;99.90
18191;DHT22;47004;51.366;12.348;2023-04-24T08:19:41;14.10;99.90
18191;DHT22;47004;51.366;12.348;2023-04-24T08:21:48;14.20;99.90
18191;DHT22;47004;51.366;12.348;2023-04-24T08:23:50;14.30;99.90
18191;DHT22;47004;51.366;12.348;2023-04-24T08:25:54;14.40;99.90
18191;DHT22;47004;51.366;12.348;2023-04-24T08:27:59;14.50;99.90
18191;DHT22;47004;51.366;12.348;2023-04-24T08:30:01;14.60;99.90
18191;DHT22;47004;51.366;12.348;2023-04-24T08:32:03;14.80;99.90
18191;DHT22;47004;51.366;12.348;2023-04-24T08:34:05;14.80;99.90
18191;DHT22;47004;51.366;12.348;2023-04-24T08:36:07;15.00;99.90
18191;DHT22;47004;51.366;12.348;2023-04-24T08:38:09;15.10;99.90
18191;DHT22;47004;51.366;12.348;2023-04-24T08:40:13;15.20;99.90
18191;DHT22;47004;51.366;12.348;2023-04-24T08:42:17;15.20;99.90
18191;DHT22;47004;51.366;12.348;2023-04-24T08:44:21;15.20;99.90
18191;DHT22;47004;51.366;12.348;2023-04-24T08:46:23;15.20;99.90
18191;DHT22;47004;51.366;12.348;2023-04-24T08:48:26;15.20;99.90
18191;DHT22;47004;51.366;12.348;2023-04-24T08:50:29;15.20;99.90
18191;DHT22;47004;51.366;12.348;2023-04-24T08:52:32;15.10;99.90
18191;DHT22;47004;51.366;12.348;2023-04-24T08:54:35;15.10;99.90
18191;DHT22;47004;51.366;12.348;2023-04-24T08:56:38;15.00;99.90
18191;DHT22;47004;51.366;12.348;2023-04-24T08:58:42;15.00;99.90
18191;DHT22;47004;51.366;12.348;2023-04-24T09:00:46;15.00;99.90
18191;DHT22;47004;51.366;12.348;2023-04-24T09:02:49;15.10;99.90
18191;DHT22;47004;51.366;12.348;2023-04-24T09:04:52;15.10;99.90
18191;DHT22;47004;51.366;12.348;2023-04-24T09:06:56;15.20;99.90
18191;DHT22;47004;51.366;12.348;2023-04-24T09:09:00;15.20;99.90
18191;DHT22;47004;51.366;12.348;2023-04-24T09:11:04;15.20;99.90
18191;DHT22;47004;51.366;12.348;2023-04-24T09:13:08;15.20;99.90
18191;DHT22;47004;51.366;12.348;2023-04-24T09:15:11;15.20;99.90
18191;DHT22;47004;51.366;12.348;2023-04-24T09:17:14;15.20;99.90
18191;DHT22;47004;51.366;12.348;2023-04-24T09:19:16;15.10;99.90
18191;DHT22;47004;51.366;12.348;2023-04-24T09:21:21;15.20;99.90
18191;DHT22;47004;51.366;12.348;2023-04-24T09:23:23;15.10;99.90
18191;DHT22;47004;51.366;12.348;2023-04-24T09:25:31;15.10;99.90
18191;DHT22;47004;51.366;12.348;2023-04-24T09:27:34;15.10;99.90
18191;DHT22;47004;51.366;12.348;2023-04-24T09:29:36;15.00;99.90
18191;DHT22;47004;51.366;12.348;2023-04-24T09:31:38;15.00;99.90
18191;DHT22;47004;51.366;12.348;2023-04-24T09:33:54;15.00;99.90
18191;DHT22;47004;51.366;12.348;2023-04-24T09:35:56;14.90;99.90
18191;DHT22;47004;51.366;12.348;2023-04-24T09:37:59;14.90;99.90
18191;DHT22;47004;51.366;12.348;2023-04-24T09:40:17;14.90;99.90
18191;DHT22;47004;51.366;12.348;2023-04-24T09:42:19;14.90;99.90
18191;DHT22;47004;51.366;12.348;2023-04-24T09:44:23;15.00;99.90
18191;DHT22;47004;51.366;12.348;2023-04-24T09:46:30;15.00;99.90
18191;DHT22;47004;51.366;12.348;2023-04-24T09:48:33;15.10;99.90
18191;DHT22;47004;51.366;12.348;2023-04-24T09:50:37;15.10;99.90
18191;DHT22;47004;51.366;12.348;2023-04-24T09:52:43;15.20;99.90
18191;DHT22;47004;51.366;12.348;2023-04-24T09:54:52;15.20;99.90
18191;DHT22;47004;51.366;12.348;2023-04-24T09:56:54;15.20;99.90
18191;DHT22;47004;51.366;12.348;2023-04-24T09:59:04;15.20;99.90
18191;DHT22;47004;51.366;12.348;2023-04-24T10:01:06;15.20;99.90
18191;DHT22;47004;51.366;12.348;2023-04-24T10:03:08;15.30;99.90
18191;DHT22;47004;51.366;12.348;2023-04-24T10:05:11;15.30;99.90
18191;DHT22;47004;51.366;12.348;2023-04-24T10:07:15;15.40;99.90
18191;DHT22;47004;51.366;12.348;2023-04-24T10:09:18;15.40;99.90
18191;DHT22;47004;51.366;12.348;2023-04-24T10:11:20;15.50;99.90
18191;DHT22;47004;51.366;12.348;2023-04-24T10:13:22;15.50;99.90
18191;DHT22;47004;51.366;12.348;2023-04-24T10:15:24;15.50;99.90
18191;DHT22;47004;51.366;12.348;2023-04-24T10:17:28;15.50;99.90
18191;DHT22;47004;51.366;12.348;2023-04-24T10:19:30;15.50;99.90
18191;DHT22;47004;51.366;12.348;2023-04-24T10:21:34;15.60;99.90
18191;DHT22;47004;51.366;12.348;2023-04-24T10:23:38;15.60;99.90
18191;DHT22;47004;51.366;12.348;2023-04-24T10:25:41;15.70;99.90
18191;DHT22;47004;51.366;12.348;2023-04-24T10:27:43;15.70;99.90
18191;DHT22;47004;51.366;12.348;2023-04-24T10:29:47;15.70;99.90
18191;DHT22;47004;51.366;12.348;2023-04-24T10:31:51;15.80;99.90
18191;DHT22;47004;51.366;12.348;2023-04-24T10:33:53;15.80;99.90
18191;DHT22;47004;51.366;12.348;2023-04-24T10:35:57;15.80;99.90
18191;DHT22;47004;51.366;12.348;2023-04-24T10:38:03;15.80;99.90
18191;DHT22;47004;51.366;12.348;2023-04-24T10:40:09;15.80;99.90
18191;DHT22;47004;51.366;12.348;2023-04-24T10:42:14;15.90;99.90
18191;DHT22;47004;51.366;12.348;2023-04-24T10:44:16;15.90;99.90
18191;DHT22;47004;51.366;12.348;2023-04-24T10:46:20;15.90;99.90
18191;DHT22;47004;51.366;12.348;2023-04-24T10:48:26;16.00;99.90
18191;DHT22;47004;51.366;12.348;2023-04-24T10:50:30;16.00;99.90
18191;DHT22;47004;51.366;12.348;2023-04-24T10:52:46;16.10;99.90
18191;DHT22;47004;51.366;12.348;2023-04-24T10:54:48;16.20;97.80
18191;DHT22;47004;51.366;12.348;2023-04-24T10:56:52;16.20;99.80
18191;DHT22;47004;51.366;12.348;2023-04-24T10:58:57;16.30;99.90
18191;DHT22;47004;51.366;12.348;2023-04-24T11:00:59;16.40;99.90
18191;DHT22;47004;51.366;12.348;2023-04-24T11:03:04;16.60;99.60
18191;DHT22;47004;51.366;12.348;2023-04-24T11:05:07;16.70;93.10
18191;DHT22;47004;51.366;12.348;2023-04-24T11:07:12;16.70;91.20
18191;DHT22;47004;51.366;12.348;2023-04-24T11:09:15;16.80;88.60
18191;DHT22;47004;51.366;12.348;2023-04-24T11:11:17;16.90;84.70
18191;DHT22;47004;51.366;12.348;2023-04-24T11:13:23;16.90;74.10
18191;DHT22;47004;51.366;12.348;2023-04-24T11:15:25;16.90;72.00
18191;DHT22;47004;51.366;12.348;2023-04-24T11:17:29;16.90;66.80
18191;DHT22;47004;51.366;12.348;2023-04-24T11:19:33;16.90;70.50
18191;DHT22;47004;51.366;12.348;2023-04-24T11:21:44;16.90;71.40
18191;DHT22;47004;51.366;12.348;2023-04-24T11:23:46;17.00;68.60
18191;DHT22;47004;51.366;12.348;2023-04-24T11:26:10;17.10;64.70
18191;DHT22;47004;51.366;12.348;2023-04-24T11:28:14;17.30;62.30
18191;DHT22;47004;51.366;12.348;2023-04-24T11:30:22;17.40;58.80
18191;DHT22;47004;51.366;12.348;2023-04-24T11:32:27;17.60;54.60
18191;DHT22;47004;51.366;12.348;2023-04-24T11:34:29;17.70;53.00
18191;DHT22;47004;51.366;12.348;2023-04-24T11:36:34;17.90;51.80
18191;DHT22;47004;51.366;12.348;2023-04-24T11:38:40;18.10;50.90
18191;DHT22;47004;51.366;12.348;2023-04-24T11:40:42;18.10;49.60
18191;DHT22;47004;51.366;12.348;2023-04-24T11:42:45;18.10;49.70
18191;DHT22;47004;51.366;12.348;2023-04-24T11:44:48;18.20;49.70
18191;DHT22;47004;51.366;12.348;2023-04-24T11:46:52;18.20;49.10
18191;DHT22;47004;51.366;12.348;2023-04-24T11:48:54;18.10;48.50
18191;DHT22;47004;51.366;12.348;2023-04-24T11:50:55;18.00;50.80
18191;DHT22;47004;51.366;12.348;2023-04-24T11:52:57;17.90;50.20
18191;DHT22;47004;51.366;12.348;2023-04-24T11:55:00;17.90;50.40
18191;DHT22;47004;51.366;12.348;2023-04-24T11:57:04;18.10;52.70
18191;DHT22;47004;51.366;12.348;2023-04-24T11:59:07;18.30;49.00
18191;DHT22;47004;51.366;12.348;2023-04-24T12:01:09;18.50;46.40
18191;DHT22;47004;51.366;12.348;2023-04-24T12:03:13;18.40;46.00
18191;DHT22;47004;51.366;12.348;2023-04-24T12:05:19;18.30;47.00
18191;DHT22;47004;51.366;12.348;2023-04-24T12:07:22;18.10;47.30
18191;DHT22;47004;51.366;12.348;2023-04-24T12:09:24;18.00;49.20
18191;DHT22;47004;51.366;12.348;2023-04-24T12:11:26;18.00;48.60
18191;DHT22;47004;51.366;12.348;2023-04-24T12:13:29;18.00;47.90
18191;DHT22;47004;51.366;12.348;2023-04-24T12:15:31;18.00;48.50
18191;DHT22;47004;51.366;12.348;2023-04-24T12:17:34;18.20;48.40
18191;DHT22;47004;51.366;12.348;2023-04-24T12:19:44;18.50;47.80
18191;DHT22;47004;51.366;12.348;2023-04-24T12:22:00;18.70;46.80
18191;DHT22;47004;51.366;12.348;2023-04-24T12:24:05;19.20;45.30
18191;DHT22;47004;51.366;12.348;2023-04-24T12:26:07;19.60;43.40
18191;DHT22;47004;51.366;12.348;2023-04-24T12:28:11;19.90;42.10
18191;DHT22;47004;51.366;12.348;2023-04-24T12:30:16;20.00;40.90
18191;DHT22;47004;51.366;12.348;2023-04-24T12:32:21;19.90;40.60
18191;DHT22;47004;51.366;12.348;2023-04-24T12:34:25;19.80;40.40
18191;DHT22;47004;51.366;12.348;2023-04-24T12:36:29;19.50;40.30
18191;DHT22;47004;51.366;12.348;2023-04-24T12:38:32;19.40;41.60
18191;DHT22;47004;51.366;12.348;2023-04-24T12:40:41;19.20;42.10
18191;DHT22;47004;51.366;12.348;2023-04-24T12:42:45;19.10;42.50
18191;DHT22;47004;51.366;12.348;2023-04-24T12:44:47;19.20;43.90